createdAt,value
2023-02-28T00:01:19.266Z,91.40
2023-02-28T00:03:46.345Z,91.70
2023-02-28T00:06:13.414Z,91.60
2023-02-28T00:08:40.682Z,91.90
2023-02-28T00:11:10.665Z,92.20
2023-02-28T00:13:43.854Z,92.00
2023-02-28T00:16:14.497Z,92.20
2023-02-28T00:18:42.124Z,92.30
2023-02-28T00:21:09.578Z,92.40
2023-02-28T00:23:37.082Z,92.30
2023-02-28T00:26:04.537Z,92.60
2023-02-28T00:28:36.133Z,92.70
2023-02-28T00:33:57.422Z,92.70
2023-02-28T00:36:25.778Z,92.90
2023-02-28T00:38:53.495Z,92.80
2023-02-28T00:41:21.455Z,92.80
2023-02-28T00:43:49.709Z,92.80
2023-02-28T00:46:17.547Z,92.90
2023-02-28T00:48:45.713Z,93.10
2023-02-28T00:51:12.699Z,93.20
2023-02-28T00:53:39.701Z,93.50
2023-02-28T00:56:07.513Z,93.70
2023-02-28T00:58:34.539Z,93.90
2023-02-28T01:01:08.773Z,93.80
2023-02-28T01:03:39.389Z,94.20
2023-02-28T01:06:07.951Z,94.30
2023-02-28T01:08:35.735Z,94.20
2023-02-28T01:11:10.864Z,94.30
2023-02-28T01:13:38.155Z,94.30
2023-02-28T01:16:05.509Z,94.10
2023-02-28T01:18:32.560Z,94.40
2023-02-28T01:20:59.475Z,94.80
2023-02-28T01:23:26.488Z,95.10
2023-02-28T01:25:53.870Z,95.20
2023-02-28T01:28:21.239Z,95.60
2023-02-28T01:30:52.003Z,96.10
2023-02-28T01:33:19.331Z,96.60
2023-02-28T01:35:46.391Z,97.00
2023-02-28T01:38:22.083Z,97.40
2023-02-28T01:40:50.202Z,97.90
2023-02-28T01:43:21.817Z,98.10
2023-02-28T01:45:49.023Z,98.50
2023-02-28T01:48:16.731Z,98.80
2023-02-28T01:50:48.277Z,99.20
2023-02-28T01:53:20.403Z,99.30
2023-02-28T01:55:53.002Z,99.60
2023-02-28T01:58:20.190Z,99.80
2023-02-28T02:00:47.688Z,99.90
2023-02-28T02:03:19.998Z,99.90
2023-02-28T02:05:48.909Z,99.90
2023-02-28T02:08:24.960Z,99.90
2023-02-28T02:10:56.041Z,99.90
2023-02-28T02:13:41.641Z,99.90
2023-02-28T02:16:20.628Z,99.90
2023-02-28T02:19:09.065Z,99.90
2023-02-28T02:21:57.845Z,99.90
2023-02-28T02:25:09.142Z,99.90
2023-02-28T02:28:15.086Z,99.90
2023-02-28T02:30:56.727Z,99.90
2023-02-28T02:33:26.382Z,99.90
2023-02-28T02:36:05.315Z,99.90
2023-02-28T02:38:55.922Z,99.90
2023-02-28T02:41:47.398Z,99.90
2023-02-28T02:44:22.954Z,99.90
2023-02-28T02:46:54.062Z,99.90
2023-02-28T02:49:31.825Z,99.90
2023-02-28T02:52:03.809Z,99.90
2023-02-28T02:54:38.319Z,99.90
2023-02-28T02:57:09.856Z,99.90
2023-02-28T02:59:39.427Z,99.90
2023-02-28T03:02:11.183Z,99.90
2023-02-28T03:04:43.970Z,99.90
2023-02-28T03:07:11.056Z,99.90
2023-02-28T03:09:38.531Z,99.90
2023-02-28T03:12:10.614Z,99.90
2023-02-28T03:14:44.740Z,99.90
2023-02-28T03:17:39.424Z,99.90
2023-02-28T03:20:23.948Z,99.90
2023-02-28T03:23:04.201Z,99.90
2023-02-28T03:25:34.196Z,99.90
2023-02-28T03:28:17.100Z,99.90
2023-02-28T03:30:55.631Z,99.90
2023-02-28T03:33:27.362Z,99.90
2023-02-28T03:36:02.765Z,99.90
2023-02-28T03:38:39.410Z,99.90
2023-02-28T03:41:10.660Z,99.90
2023-02-28T03:43:42.387Z,99.90
2023-02-28T03:46:13.887Z,99.90
2023-02-28T03:48:47.116Z,99.90
2023-02-28T03:51:18.532Z,99.90
2023-02-28T03:53:52.546Z,99.90
2023-02-28T03:56:34.313Z,99.90
2023-02-28T03:59:26.126Z,99.90
2023-02-28T04:01:53.149Z,99.90
2023-02-28T04:04:20.205Z,99.90
2023-02-28T04:06:51.620Z,99.90
2023-02-28T04:09:18.732Z,99.90
2023-02-28T04:11:53.017Z,99.90
2023-02-28T04:14:20.073Z,99.90
2023-02-28T04:16:47.069Z,99.90
2023-02-28T04:19:15.326Z,99.90
2023-02-28T04:21:45.034Z,99.90
2023-02-28T04:24:15.314Z,99.90
2023-02-28T04:26:44.750Z,99.90
2023-02-28T04:29:14.606Z,99.90
2023-02-28T04:31:41.788Z,99.90
2023-02-28T04:34:09.053Z,99.90
2023-02-28T04:36:36.145Z,99.90
2023-02-28T04:39:03.409Z,99.90
2023-02-28T04:41:32.637Z,99.90
2023-02-28T04:44:00.381Z,99.90
2023-02-28T04:46:27.433Z,99.90
2023-02-28T04:48:55.597Z,99.90
2023-02-28T04:51:23.076Z,99.90
2023-02-28T04:53:50.068Z,99.90
2023-02-28T04:56:18.915Z,99.90
2023-02-28T04:58:46.191Z,99.90
2023-02-28T05:01:29.651Z,99.90
2023-02-28T05:03:58.761Z,99.90
2023-02-28T05:06:28.131Z,99.90
2023-02-28T05:08:55.245Z,99.90
2023-02-28T05:11:27.758Z,99.90
2023-02-28T05:13:55.250Z,99.90
2023-02-28T05:16:22.534Z,99.90
2023-02-28T05:18:49.689Z,99.90
2023-02-28T05:21:31.321Z,99.90
2023-02-28T05:24:01.039Z,99.90
2023-02-28T05:26:28.991Z,99.90
2023-02-28T05:28:56.091Z,99.90
2023-02-28T05:31:23.517Z,99.90
2023-02-28T05:33:50.501Z,99.90
2023-02-28T05:36:17.509Z,99.90
2023-02-28T05:38:46.548Z,99.90
2023-02-28T05:41:13.375Z,99.90
2023-02-28T05:43:40.284Z,99.90
2023-02-28T05:46:09.148Z,99.90
2023-02-28T05:48:38.073Z,99.90
2023-02-28T05:51:06.465Z,99.90
2023-02-28T05:53:34.005Z,99.90
2023-02-28T05:56:01.188Z,99.90
2023-02-28T05:58:32.230Z,99.90
2023-02-28T06:01:20.483Z,99.90
2023-02-28T06:03:47.451Z,99.90
2023-02-28T06:06:14.406Z,99.90
2023-02-28T06:08:41.418Z,99.90
2023-02-28T06:11:08.504Z,99.90
2023-02-28T06:13:35.606Z,99.90
2023-02-28T06:16:03.089Z,99.90
2023-02-28T06:18:30.160Z,99.90
2023-02-28T06:20:57.270Z,99.90
2023-02-28T06:23:24.208Z,99.90
2023-02-28T06:25:51.572Z,99.90
2023-02-28T06:28:18.563Z,99.90
2023-02-28T06:30:46.577Z,99.90
2023-02-28T06:33:13.947Z,99.90
2023-02-28T06:35:40.921Z,99.90
2023-02-28T06:38:07.984Z,99.90
2023-02-28T06:40:36.932Z,99.90
2023-02-28T06:43:04.359Z,99.90
2023-02-28T06:45:31.513Z,99.90
2023-02-28T06:47:59.181Z,99.90
2023-02-28T06:50:26.140Z,99.80
2023-02-28T06:52:55.055Z,99.90
2023-02-28T06:55:22.115Z,99.60
2023-02-28T06:57:51.513Z,99.40
2023-02-28T07:00:18.917Z,99.30
2023-02-28T07:02:45.943Z,99.20
2023-02-28T07:05:12.933Z,99.10
2023-02-28T07:07:44.657Z,99.00
2023-02-28T07:10:12.560Z,99.00
2023-02-28T07:12:39.449Z,98.60
2023-02-28T07:15:07.158Z,98.50
2023-02-28T07:17:34.240Z,98.40
2023-02-28T07:20:01.144Z,98.00
2023-02-28T07:22:29.694Z,97.90
2023-02-28T07:24:56.511Z,97.40
2023-02-28T07:27:26.722Z,97.10
2023-02-28T07:29:54.234Z,97.10
2023-02-28T07:32:22.054Z,96.70
2023-02-28T07:34:49.535Z,96.60
2023-02-28T07:37:16.489Z,96.40
2023-02-28T07:39:43.618Z,96.00
2023-02-28T07:42:12.894Z,95.80
2023-02-28T07:44:43.617Z,95.40
2023-02-28T07:47:11.443Z,95.20
2023-02-28T07:49:38.735Z,95.00
2023-02-28T07:52:08.023Z,94.80
2023-02-28T07:54:35.144Z,94.90
2023-02-28T07:57:02.077Z,94.30
2023-02-28T07:59:31.850Z,94.20
2023-02-28T08:02:00.276Z,93.90
2023-02-28T08:04:27.673Z,93.60
2023-02-28T08:06:54.717Z,93.40
2023-02-28T08:09:21.689Z,93.10
2023-02-28T08:11:48.647Z,93.00
2023-02-28T08:14:15.761Z,93.30
2023-02-28T08:16:44.020Z,93.20
2023-02-28T08:19:11.042Z,93.40
2023-02-28T08:21:38.026Z,92.80
2023-02-28T08:24:05.369Z,92.50
2023-02-28T08:26:32.539Z,92.40
2023-02-28T08:29:01.441Z,92.10
2023-02-28T08:31:29.032Z,91.90
2023-02-28T08:33:59.747Z,91.40
2023-02-28T08:36:29.702Z,91.40
2023-02-28T08:38:58.144Z,91.30
2023-02-28T08:41:24.978Z,90.90
2023-02-28T08:43:51.848Z,90.60
2023-02-28T08:46:19.208Z,90.20
2023-02-28T08:48:46.441Z,89.80
2023-02-28T08:51:19.757Z,87.20
2023-02-28T08:53:47.029Z,85.40
2023-02-28T08:56:17.681Z,83.50
2023-02-28T08:58:45.656Z,82.20
2023-02-28T09:01:15.233Z,81.00
2023-02-28T09:03:43.418Z,78.80
2023-02-28T09:06:11.888Z,78.00
2023-02-28T09:08:39.322Z,76.90
2023-02-28T09:32:25.046Z,70.70
2023-02-28T09:34:52.159Z,69.70
2023-02-28T09:37:19.100Z,69.70
2023-02-28T09:39:46.020Z,69.30
2023-02-28T09:42:24.625Z,68.60
2023-02-28T09:44:52.103Z,68.60
2023-02-28T09:47:34.532Z,69.10
2023-02-28T09:50:18.558Z,68.60
2023-02-28T09:52:48.177Z,68.20
2023-02-28T09:55:46.683Z,67.60
2023-02-28T09:58:25.059Z,67.20
2023-02-28T10:01:08.418Z,67.70
2023-02-28T10:03:38.232Z,68.00
2023-02-28T10:06:05.218Z,68.10
2023-02-28T10:08:46.187Z,67.60
2023-02-28T10:11:17.638Z,67.80
2023-02-28T10:14:03.578Z,67.30
2023-02-28T10:16:36.818Z,67.60
2023-02-28T10:19:05.761Z,67.90
2023-02-28T10:21:43.464Z,68.30
2023-02-28T10:24:30.025Z,68.00
2023-02-28T10:27:03.108Z,67.50
2023-02-28T10:29:33.914Z,68.00
2023-02-28T10:32:03.836Z,68.60
2023-02-28T10:34:31.170Z,68.90
2023-02-28T10:37:08.507Z,69.30
2023-02-28T10:39:38.754Z,69.10
2023-02-28T10:42:06.497Z,69.00
2023-02-28T10:44:33.745Z,68.80
2023-02-28T10:47:01.200Z,68.70
2023-02-28T10:49:30.085Z,68.90
2023-02-28T10:52:00.246Z,68.90
2023-02-28T10:54:38.907Z,69.20
2023-02-28T10:57:29.565Z,68.00
2023-02-28T11:00:22.564Z,67.50
2023-02-28T11:02:49.910Z,67.20
2023-02-28T11:05:32.015Z,66.50
2023-02-28T11:08:15.303Z,66.70
2023-02-28T11:10:47.640Z,66.60
2023-02-28T11:13:24.179Z,66.90
2023-02-28T11:16:01.203Z,66.40
2023-02-28T11:18:54.198Z,66.40
2023-02-28T11:21:34.930Z,64.90
2023-02-28T11:24:05.101Z,64.20
2023-02-28T11:26:51.846Z,64.20
2023-02-28T11:29:29.283Z,64.10
2023-02-28T11:32:09.601Z,63.90
2023-02-28T11:34:38.722Z,63.50
2023-02-28T11:37:10.801Z,63.10
2023-02-28T11:39:37.896Z,62.60
2023-02-28T11:42:16.968Z,61.90
2023-02-28T11:44:58.989Z,62.00
2023-02-28T11:47:26.017Z,61.40
2023-02-28T11:50:04.656Z,62.00
2023-02-28T11:52:47.119Z,61.30
2023-02-28T11:55:23.190Z,60.90
2023-02-28T11:58:05.004Z,60.70
2023-02-28T12:00:58.312Z,60.60
2023-02-28T12:03:49.267Z,59.90
2023-02-28T12:06:39.644Z,59.90
2023-02-28T12:09:30.975Z,58.80
2023-02-28T12:12:09.076Z,58.60
2023-02-28T12:14:51.055Z,58.30
2023-02-28T12:17:36.435Z,58.40
2023-02-28T12:20:18.916Z,58.60
2023-02-28T12:23:02.067Z,59.60
2023-02-28T12:26:03.308Z,58.40
2023-02-28T12:28:45.213Z,58.80
2023-02-28T12:31:26.161Z,57.90
2023-02-28T12:33:57.691Z,58.10
2023-02-28T12:36:27.408Z,57.40
2023-02-28T12:39:02.645Z,56.90
2023-02-28T12:41:43.352Z,57.30
2023-02-28T12:44:19.264Z,57.90
2023-02-28T12:46:51.795Z,57.20
2023-02-28T12:49:22.869Z,56.60
2023-02-28T12:51:51.209Z,55.80
2023-02-28T12:54:45.518Z,56.40
2023-02-28T12:57:39.624Z,55.70
2023-02-28T13:00:15.563Z,55.90
2023-02-28T13:02:42.505Z,54.60
2023-02-28T13:05:29.768Z,54.80
2023-02-28T13:08:23.120Z,54.50
2023-02-28T13:10:55.418Z,54.00
2023-02-28T13:13:29.231Z,53.80
2023-02-28T13:16:07.268Z,53.80
2023-02-28T13:18:47.541Z,54.40
2023-02-28T13:21:29.946Z,55.20
2023-02-28T13:24:04.806Z,55.30
2023-02-28T13:26:31.891Z,55.40
2023-02-28T13:29:16.876Z,53.40
2023-02-28T13:32:09.652Z,53.70
2023-02-28T13:34:56.962Z,53.40
2023-02-28T13:37:26.821Z,52.70
2023-02-28T13:40:38.840Z,52.40
2023-02-28T13:43:09.954Z,52.10
2023-02-28T13:45:40.780Z,51.70
2023-02-28T13:48:18.288Z,51.70
2023-02-28T13:50:45.959Z,51.10
2023-02-28T13:53:15.608Z,51.50
2023-02-28T13:55:57.777Z,51.40
2023-02-28T13:58:47.824Z,50.70
2023-02-28T14:01:41.353Z,50.50
2023-02-28T14:04:26.805Z,50.80
2023-02-28T14:06:56.562Z,50.70
2023-02-28T14:09:36.502Z,50.80
2023-02-28T14:12:40.439Z,51.10
2023-02-28T14:15:29.570Z,49.90
2023-02-28T14:17:57.386Z,50.00
2023-02-28T14:20:28.759Z,50.10
2023-02-28T14:23:12.004Z,49.80
2023-02-28T14:25:43.163Z,50.20
2023-02-28T14:28:13.006Z,50.40
2023-02-28T14:31:11.076Z,50.00
2023-02-28T14:33:48.930Z,50.10
2023-02-28T14:36:21.671Z,49.90
2023-02-28T14:38:49.434Z,50.00
2023-02-28T14:41:24.876Z,50.00
2023-02-28T14:43:58.253Z,50.30
2023-02-28T14:46:48.295Z,49.90
2023-02-28T14:49:18.770Z,49.90
2023-02-28T14:51:46.224Z,50.20
2023-02-28T14:54:17.640Z,49.60
2023-02-28T14:56:44.849Z,50.00
2023-02-28T14:59:31.359Z,49.90
2023-02-28T15:02:24.111Z,50.10
2023-02-28T15:05:03.488Z,50.10
2023-02-28T15:07:30.990Z,50.20
2023-02-28T15:10:21.582Z,50.80
2023-02-28T15:12:57.486Z,50.20
2023-02-28T15:16:00.948Z,50.60
2023-02-28T15:18:49.818Z,50.40
2023-02-28T15:21:23.633Z,50.70
2023-02-28T15:24:33.897Z,51.00
2023-02-28T15:27:05.172Z,50.90
2023-02-28T15:29:43.950Z,51.10
2023-02-28T15:32:25.458Z,51.30
2023-02-28T15:34:52.648Z,51.70
2023-02-28T15:37:33.317Z,51.60
2023-02-28T15:40:07.174Z,52.10
2023-02-28T15:42:34.134Z,52.10
2023-02-28T15:45:01.012Z,52.30
2023-02-28T15:47:30.323Z,51.90
2023-02-28T15:50:04.478Z,52.30
2023-02-28T15:52:49.770Z,52.50
2023-02-28T15:55:25.631Z,52.50
2023-02-28T15:57:56.066Z,53.00
2023-02-28T16:00:24.991Z,52.80
2023-02-28T16:02:52.339Z,53.60
2023-02-28T16:05:31.730Z,53.10
2023-02-28T16:08:01.246Z,53.00
2023-02-28T16:10:30.841Z,53.00
2023-02-28T16:12:59.069Z,53.50
2023-02-28T16:15:42.722Z,53.80
2023-02-28T16:18:12.377Z,53.70
2023-02-28T16:20:39.658Z,53.60
2023-02-28T16:23:06.753Z,53.90
2023-02-28T16:25:40.404Z,54.30
2023-02-28T16:28:37.868Z,54.60
2023-02-28T16:31:06.340Z,54.90
2023-02-28T16:33:35.864Z,55.00
2023-02-28T16:36:03.001Z,55.20
2023-02-28T16:38:29.877Z,55.50
2023-02-28T16:40:58.868Z,55.90
2023-02-28T16:43:28.212Z,56.30
2023-02-28T16:56:27.522Z,56.60
2023-02-28T16:59:00.303Z,59.10
2023-02-28T17:01:29.131Z,59.30
2023-02-28T17:03:56.531Z,59.90
2023-02-28T17:06:28.226Z,60.00
2023-02-28T17:08:56.298Z,60.40
2023-02-28T17:11:23.821Z,60.40
2023-02-28T17:13:50.900Z,60.70
2023-02-28T17:16:27.668Z,60.80
2023-02-28T17:18:58.687Z,61.60
2023-02-28T17:21:25.882Z,61.60
2023-02-28T17:23:52.892Z,62.10
2023-02-28T17:26:22.329Z,62.40
2023-02-28T17:28:50.169Z,62.70
2023-02-28T17:31:17.129Z,62.70
2023-02-28T17:33:44.422Z,63.50
2023-02-28T17:36:16.586Z,63.60
2023-02-28T17:38:43.678Z,63.90
2023-02-28T17:41:12.024Z,63.90
2023-02-28T17:43:39.260Z,64.00
2023-02-28T17:46:07.541Z,64.40
2023-02-28T17:48:34.763Z,64.60
2023-02-28T17:51:01.622Z,64.40
2023-02-28T17:53:28.612Z,64.90
2023-02-28T17:55:55.710Z,65.10
2023-02-28T17:58:22.680Z,65.40
2023-02-28T18:00:54.813Z,65.50
2023-02-28T18:03:22.205Z,65.40
2023-02-28T18:05:50.188Z,65.70
2023-02-28T18:08:17.723Z,65.80
2023-02-28T18:10:44.617Z,65.90
2023-02-28T18:13:13.595Z,66.20
2023-02-28T18:15:40.723Z,66.10
2023-02-28T18:18:07.747Z,66.30
2023-02-28T18:20:36.011Z,66.40
2023-02-28T18:23:03.686Z,66.50
2023-02-28T18:25:30.497Z,66.70
2023-02-28T18:28:00.799Z,66.80
2023-02-28T18:30:31.498Z,66.70
2023-02-28T18:33:02.426Z,66.80
2023-02-28T18:35:36.405Z,67.20
2023-02-28T18:38:13.935Z,67.50
2023-02-28T18:40:42.217Z,67.60
2023-02-28T18:43:09.665Z,67.50
2023-02-28T18:45:38.696Z,68.00
2023-02-28T18:48:06.385Z,67.70
2023-02-28T18:50:33.242Z,67.70
2023-02-28T18:53:00.185Z,68.40
2023-02-28T18:55:27.953Z,68.10
2023-02-28T18:57:54.849Z,68.00
2023-02-28T19:00:22.842Z,68.30
2023-02-28T19:02:50.719Z,68.60
2023-02-28T19:05:19.176Z,68.70
2023-02-28T19:07:47.016Z,68.70
2023-02-28T19:10:14.407Z,68.50
2023-02-28T19:12:43.327Z,68.70
2023-02-28T19:15:11.436Z,69.30
2023-02-28T19:17:38.684Z,69.10
2023-02-28T19:20:06.933Z,69.00
2023-02-28T19:22:33.939Z,69.10
2023-02-28T19:25:00.794Z,69.60
2023-02-28T19:27:27.734Z,69.70
2023-02-28T19:29:54.704Z,70.00
2023-02-28T19:32:21.776Z,70.20
2023-02-28T19:34:48.778Z,70.40
2023-02-28T19:37:15.834Z,70.40
2023-02-28T19:39:46.297Z,70.80
2023-02-28T19:42:16.234Z,70.80
2023-02-28T19:44:43.773Z,71.50
2023-02-28T19:47:11.422Z,71.60
2023-02-28T19:49:38.268Z,71.70
2023-02-28T19:52:05.631Z,71.90
2023-02-28T19:54:32.552Z,71.90
2023-02-28T19:56:59.914Z,72.30
2023-02-28T19:59:38.376Z,72.40
2023-02-28T20:02:12.952Z,72.30
2023-02-28T20:04:40.012Z,72.80
2023-02-28T20:07:06.943Z,73.00
2023-02-28T20:09:34.013Z,73.40
2023-02-28T20:12:01.688Z,73.40
2023-02-28T20:14:29.798Z,73.40
2023-02-28T20:16:58.278Z,74.10
2023-02-28T20:19:25.675Z,74.00
2023-02-28T20:21:52.576Z,74.20
2023-02-28T20:24:21.065Z,74.60
2023-02-28T20:26:47.993Z,74.80
2023-02-28T20:29:15.109Z,74.90
2023-02-28T20:31:42.213Z,74.90
2023-02-28T20:34:09.356Z,75.30
2023-02-28T20:36:36.702Z,75.30
2023-02-28T20:39:04.253Z,75.70
2023-02-28T20:41:31.212Z,75.80
2023-02-28T20:43:59.035Z,75.80
2023-02-28T20:46:26.759Z,76.30
2023-02-28T20:48:54.230Z,76.10
2023-02-28T20:51:21.870Z,76.40
2023-02-28T20:53:48.908Z,76.80
2023-02-28T20:56:19.157Z,77.00
2023-02-28T20:58:48.397Z,76.90
2023-02-28T21:01:26.395Z,77.30
2023-02-28T21:03:56.459Z,77.30
2023-02-28T21:06:26.574Z,77.30
2023-02-28T21:08:53.920Z,77.80
2023-02-28T21:11:24.364Z,78.10
2023-02-28T21:13:51.849Z,78.40
2023-02-28T21:16:21.724Z,78.40
2023-02-28T21:18:49.638Z,78.40
2023-02-28T21:21:19.134Z,78.90
2023-02-28T21:23:49.677Z,79.20
2023-02-28T21:26:19.503Z,79.30
2023-02-28T21:28:51.324Z,79.70
2023-02-28T21:31:19.847Z,79.70
2023-02-28T21:33:47.010Z,80.00
2023-02-28T21:36:17.150Z,80.30
2023-02-28T21:38:46.559Z,80.80
2023-02-28T21:41:16.918Z,80.80
2023-02-28T21:43:44.890Z,81.10
2023-02-28T21:46:14.550Z,81.30
2023-02-28T21:48:42.365Z,81.80
2023-02-28T21:51:13.711Z,82.10
2023-02-28T21:53:41.834Z,82.40
2023-02-28T21:56:19.415Z,82.90
2023-02-28T21:58:47.221Z,83.10
2023-02-28T22:01:20.039Z,83.40
2023-02-28T22:03:48.530Z,83.80
2023-02-28T22:06:18.808Z,84.20
2023-02-28T22:08:47.843Z,84.70
2023-02-28T22:11:16.734Z,84.80
2023-02-28T22:13:44.059Z,85.50
2023-02-28T22:16:13.701Z,85.80
2023-02-28T22:18:41.326Z,85.90
2023-02-28T22:21:09.965Z,86.30
2023-02-28T22:23:38.621Z,86.60
2023-02-28T22:26:08.675Z,86.80
2023-02-28T22:28:36.368Z,87.20
2023-02-28T22:31:22.296Z,87.70
2023-02-28T22:33:50.537Z,88.20
2023-02-28T22:36:18.958Z,88.30
2023-02-28T22:38:47.377Z,88.60
2023-02-28T22:41:14.497Z,89.40
2023-02-28T22:43:44.257Z,89.50
2023-02-28T22:46:13.652Z,89.70
2023-02-28T22:48:40.727Z,90.00
2023-02-28T22:51:12.988Z,90.10
2023-02-28T22:53:40.580Z,90.10
2023-02-28T22:56:09.190Z,90.00
2023-02-28T22:58:36.578Z,90.10
2023-02-28T23:01:08.268Z,90.40
2023-02-28T23:03:35.362Z,90.40
2023-02-28T23:06:11.234Z,90.60
2023-02-28T23:08:38.111Z,90.70
2023-02-28T23:11:05.195Z,90.90
2023-02-28T23:13:32.331Z,91.00
2023-02-28T23:15:59.356Z,91.30
2023-02-28T23:18:26.319Z,91.40
2023-02-28T23:20:56.592Z,91.50
2023-02-28T23:23:24.068Z,91.60
2023-02-28T23:25:50.880Z,91.70
2023-02-28T23:28:17.747Z,91.70
2023-02-28T23:30:44.615Z,91.80
2023-02-28T23:33:11.414Z,91.70
2023-02-28T23:35:38.414Z,91.80
2023-02-28T23:38:05.440Z,91.80
2023-02-28T23:40:32.289Z,91.80
2023-02-28T23:42:59.370Z,92.00
2023-02-28T23:45:26.410Z,92.00
2023-02-28T23:47:53.336Z,92.10
2023-02-28T23:50:20.437Z,92.00
2023-02-28T23:52:47.999Z,92.20
2023-02-28T23:55:15.014Z,92.10
2023-02-28T23:57:42.175Z,92.20
